Time;durP1;ratioP1;P1;durP2;ratioP2;P2;SDS_P1;SDS_P2;PMS_P1;PMS_P2;Temp;Humidity;BMP_temperature;BMP_pressure;BME280_temperature;BME280_humidity;BME280_pressure;Samples;Min_cycle;Max_cycle;Signal;HPM_P1;HPM_P2
2021/04/12 00:00:12;;;;;;;2.33;2.13;;;7.70;99.90;;;;;;5070970;28;20602;-65
2021/04/12 00:02:46;;;;;;;2.43;2.23;;;7.60;99.90;;;;;;5071075;28;20217;-65
2021/04/12 00:05:26;;;;;;;1.90;1.80;;;7.40;99.90;;;;;;5070954;28;20244;-66
2021/04/12 00:08:00;;;;;;;2.60;2.40;;;7.30;99.90;;;;;;5071115;28;20219;-65
2021/04/12 00:10:31;;;;;;;2.17;2.00;;;7.40;99.90;;;;;;5071352;28;20204;-66
2021/04/12 00:13:03;;;;;;;1.87;1.77;;;7.50;99.90;;;;;;5071184;28;20204;-66
2021/04/12 00:15:32;;;;;;;2.20;2.00;;;7.50;99.90;;;;;;5071042;28;20221;-66
2021/04/12 00:18:03;;;;;;;2.03;1.87;;;7.50;99.90;;;;;;5071257;28;20231;-66
2021/04/12 00:20:35;;;;;;;1.70;1.60;;;7.70;99.90;;;;;;5071123;28;20232;-66
2021/04/12 00:23:07;;;;;;;1.30;1.20;;;7.60;99.90;;;;;;5070951;28;20589;-65
2021/04/12 00:25:38;;;;;;;1.50;1.40;;;7.40;99.90;;;;;;5070838;28;20235;-66
2021/04/12 00:28:11;;;;;;;1.80;1.70;;;7.10;99.90;;;;;;5071223;28;20209;-66
2021/04/12 00:30:42;;;;;;;2.10;1.60;;;7.00;99.90;;;;;;5071199;28;20556;-66
2021/04/12 00:33:13;;;;;;;1.87;1.57;;;7.00;99.90;;;;;;5071471;28;20591;-67
2021/04/12 00:35:45;;;;;;;1.43;1.33;;;6.90;99.90;;;;;;5071020;28;20677;-66
2021/04/12 00:38:17;;;;;;;1.80;1.70;;;6.70;99.90;;;;;;5070702;28;20208;-66
2021/04/12 00:40:47;;;;;;;1.50;1.40;;;6.50;99.90;;;;;;5070971;28;20225;-66
2021/04/12 00:43:22;;;;;;;2.00;1.90;;;6.40;99.90;;;;;;5070880;28;20204;-66
2021/04/12 00:46:11;;;;;;;2.20;2.00;;;6.30;99.90;;;;;;5071085;28;20242;-67
2021/04/12 00:49:00;;;;;;;2.20;2.00;;;6.40;99.90;;;;;;5070787;28;20213;-65
2021/04/12 00:51:43;;;;;;;2.30;2.10;;;6.40;99.90;;;;;;5068638;28;20201;-66
2021/04/12 00:54:35;;;;;;;2.17;1.97;;;6.40;99.90;;;;;;5070415;28;20232;-64
2021/04/12 00:57:07;;;;;;;2.40;2.03;;;6.30;99.90;;;;;;5071116;28;20198;-63
2021/04/12 00:59:42;;;;;;;2.73;2.43;;;6.40;99.90;;;;;;5071233;28;20719;-64
2021/04/12 01:02:18;;;;;;;2.37;2.13;;;6.30;99.90;;;;;;5074327;28;20223;-65
2021/04/12 01:04:56;;;;;;;2.30;2.10;;;6.30;99.90;;;;;;5074256;28;20235;-63
2021/04/12 01:07:47;;;;;;;2.63;2.43;;;6.30;99.90;;;;;;5074833;28;20262;-64
2021/04/12 01:10:37;;;;;;;2.70;2.50;;;6.30;99.90;;;;;;5074654;28;20259;-64
2021/04/12 01:13:33;;;;;;;3.00;2.80;;;6.00;99.90;;;;;;5075300;28;20204;-63
2021/04/12 01:16:11;;;;;;;4.27;2.40;;;6.00;99.90;;;;;;5075200;28;20221;-64
2021/04/12 01:18:56;;;;;;;2.70;2.50;;;6.00;99.90;;;;;;5074668;28;20221;-64
2021/04/12 01:22:16;;;;;;;2.83;2.63;;;6.00;99.90;;;;;;5074110;28;20574;-63
2021/04/12 01:25:21;;;;;;;2.97;2.77;;;6.00;99.90;;;;;;5073723;28;20712;-63
2021/04/12 01:28:16;;;;;;;2.60;2.40;;;5.90;99.90;;;;;;5055773;28;20259;-63
2021/04/12 01:31:15;;;;;;;3.17;2.87;;;5.80;99.90;;;;;;5074028;28;20201;-63
2021/04/12 01:34:05;;;;;;;2.83;2.63;;;5.80;99.90;;;;;;5073975;28;20227;-62
2021/04/12 01:36:49;;;;;;;3.43;2.90;;;5.70;99.90;;;;;;5073597;28;20239;-64
2021/04/12 01:39:50;;;;;;;2.80;2.60;;;5.50;99.90;;;;;;5073709;28;20205;-62
2021/04/12 01:42:31;;;;;;;3.13;2.90;;;5.50;99.90;;;;;;5073588;28;20204;-63
2021/04/12 01:45:11;;;;;;;3.73;3.40;;;5.60;99.90;;;;;;5073478;28;20282;-65
2021/04/12 01:47:59;;;;;;;3.83;3.50;;;5.80;99.90;;;;;;5073397;28;20201;-62
2021/04/12 01:50:34;;;;;;;4.03;3.70;;;5.80;99.90;;;;;;5073474;28;20212;-63
2021/04/12 01:53:30;;;;;;;4.17;3.77;;;5.80;99.90;;;;;;5073284;28;20576;-63
2021/04/12 01:56:35;;;;;;;4.10;3.77;;;5.90;99.90;;;;;;5073204;28;20201;-64
2021/04/12 01:59:34;;;;;;;3.80;3.50;;;5.90;99.90;;;;;;5073157;28;20220;-63
2021/04/12 02:02:15;;;;;;;4.37;3.97;;;5.80;99.90;;;;;;5066285;28;20227;-63
2021/04/12 02:04:58;;;;;;;4.20;3.80;;;5.70;99.90;;;;;;5073046;28;20243;-63
2021/04/12 02:07:41;;;;;;;4.17;3.77;;;5.70;99.90;;;;;;5072973;28;20212;-65
2021/04/12 02:10:43;;;;;;;4.20;3.80;;;5.70;99.90;;;;;;5073059;28;20537;-64
2021/04/12 02:13:20;;;;;;;4.30;3.80;;;5.60;99.90;;;;;;5072438;28;20710;-63
2021/04/12 02:15:54;;;;;;;4.40;4.00;;;5.60;99.90;;;;;;5072909;28;20211;-64
2021/04/12 02:18:43;;;;;;;4.63;4.17;;;5.60;99.90;;;;;;5073046;28;20215;-66
2021/04/12 02:21:22;;;;;;;4.90;4.50;;;5.60;99.90;;;;;;5072917;28;20229;-63
2021/04/12 02:23:59;;;;;;;4.70;4.30;;;5.70;99.90;;;;;;5073272;28;20229;-64
2021/04/12 02:26:38;;;;;;;4.03;3.73;;;5.70;99.90;;;;;;5073103;28;20204;-63
2021/04/12 02:29:27;;;;;;;4.67;4.27;;;5.50;99.90;;;;;;5073009;28;20211;-64
2021/04/12 02:32:09;;;;;;;5.70;4.67;;;5.60;99.90;;;;;;5073052;28;20205;-65
2021/04/12 02:34:43;;;;;;;5.47;4.97;;;5.70;99.90;;;;;;5072458;28;20228;-65
2021/04/12 02:37:33;;;;;;;3.73;3.43;;;5.80;99.90;;;;;;5072919;28;20207;-64
2021/04/12 02:40:26;;;;;;;4.30;3.90;;;5.80;99.90;;;;;;5072923;28;20233;-65
2021/04/12 02:43:05;;;;;;;4.20;3.80;;;5.80;99.90;;;;;;5072879;28;20216;-64
2021/04/12 02:45:42;;;;;;;3.97;3.57;;;5.60;99.90;;;;;;5072386;28;20614;-66
2021/04/12 02:48:26;;;;;;;4.50;4.10;;;5.60;99.90;;;;;;5072583;28;20204;-63
2021/04/12 02:51:23;;;;;;;4.10;3.70;;;5.60;99.90;;;;;;5072695;28;20232;-64
2021/04/12 02:54:26;;;;;;;3.90;3.50;;;5.50;99.90;;;;;;5038057;28;20232;-64
2021/04/12 02:57:17;;;;;;;3.90;3.50;;;5.30;99.90;;;;;;5072296;28;20208;-63
2021/04/12 03:00:11;;;;;;;4.37;3.97;;;5.10;99.90;;;;;;5072111;28;20250;-65
2021/04/12 03:02:52;;;;;;;4.00;3.60;;;4.90;99.90;;;;;;5045552;28;20204;-64
2021/04/12 03:05:55;;;;;;;4.23;3.83;;;4.90;99.90;;;;;;5071732;28;20712;-64
2021/04/12 03:08:41;;;;;;;4.80;4.30;;;5.00;99.90;;;;;;5071385;28;20611;-63
2021/04/12 03:12:04;;;;;;;4.83;4.43;;;5.10;99.90;;;;;;5071536;28;20224;-64
2021/04/12 03:15:08;;;;;;;5.10;4.57;;;5.20;99.90;;;;;;5008769;28;20355;-65
2021/04/12 03:18:22;;;;;;;4.90;4.40;;;5.40;99.90;;;;;;5008915;28;20202;-64
2021/04/12 03:21:01;;;;;;;4.70;4.30;;;5.50;99.90;;;;;;5070961;28;20384;-64
2021/04/12 03:23:50;;;;;;;4.67;4.27;;;5.60;99.90;;;;;;5070804;28;20282;-65
2021/04/12 03:26:28;;;;;;;4.53;4.13;;;5.70;99.90;;;;;;5070751;28;20209;-64
2021/04/12 03:29:05;;;;;;;4.80;4.40;;;5.70;99.90;;;;;;5070986;28;20209;-65
2021/04/12 03:31:55;;;;;;;6.13;5.10;;;5.70;99.90;;;;;;5070837;28;20576;-65
2021/04/12 03:34:28;;;;;;;5.10;4.60;;;5.70;99.90;;;;;;5071235;28;20232;-64
2021/04/12 03:37:19;;;;;;;4.83;4.33;;;5.70;99.90;;;;;;5072072;28;20215;-64
2021/04/12 03:39:53;;;;;;;5.10;4.67;;;5.70;99.90;;;;;;5062212;28;20212;-65
2021/04/12 03:42:32;;;;;;;5.50;5.00;;;5.80;99.90;;;;;;5070888;28;20201;-64
2021/04/12 03:45:26;;;;;;;6.67;4.77;;;5.90;99.90;;;;;;5070661;28;20252;-65
2021/04/12 03:48:32;;;;;;;5.00;4.50;;;5.90;99.90;;;;;;5069842;28;20209;-65
2021/04/12 03:51:26;;;;;;;5.17;4.40;;;5.90;99.90;;;;;;5070742;28;20201;-64
2021/04/12 03:54:22;;;;;;;5.63;5.00;;;5.90;99.90;;;;;;5071131;28;20727;-64
2021/04/12 03:57:29;;;;;;;6.23;4.93;;;5.80;99.90;;;;;;5071147;28;20209;-64
2021/04/12 04:00:13;;;;;;;7.27;5.13;;;5.80;99.90;;;;;;5070118;28;20677;-65
2021/04/12 04:03:04;;;;;;;5.30;4.80;;;5.90;99.90;;;;;;5070690;28;20682;-65
2021/04/12 04:05:46;;;;;;;4.70;4.30;;;5.90;99.90;;;;;;5052321;28;539362;-65
2021/04/12 04:08:44;;;;;;;5.73;4.60;;;5.80;99.90;;;;;;5072199;28;20209;-65
2021/04/12 04:11:32;;;;;;;6.73;4.47;;;5.70;99.90;;;;;;5071955;28;20691;-65
2021/04/12 04:14:27;;;;;;;5.30;4.50;;;5.60;99.90;;;;;;5072092;28;20228;-65
2021/04/12 04:17:11;;;;;;;5.77;4.60;;;5.50;99.90;;;;;;5073322;28;20204;-64
2021/04/12 04:19:56;;;;;;;4.37;3.67;;;5.60;99.90;;;;;;5072845;28;20208;-64
2021/04/12 04:23:07;;;;;;;6.90;4.70;;;5.70;99.90;;;;;;5072842;28;20220;-64
2021/04/12 04:26:04;;;;;;;6.10;4.30;;;5.60;99.90;;;;;;5071398;28;20221;-64
2021/04/12 04:28:56;;;;;;;5.23;4.50;;;5.60;99.90;;;;;;5070540;28;20212;-64
2021/04/12 04:31:40;;;;;;;4.80;4.37;;;5.60;99.90;;;;;;5066531;28;20254;-64
2021/04/12 04:34:30;;;;;;;6.47;4.50;;;5.70;99.90;;;;;;5072099;28;20228;-64
2021/04/12 04:37:17;;;;;;;4.83;4.43;;;5.80;99.90;;;;;;5075769;28;20201;-64
2021/04/12 04:40:13;;;;;;;4.57;4.17;;;5.70;99.90;;;;;;5076133;28;20225;-66
2021/04/12 04:43:08;;;;;;;5.73;4.10;;;5.40;99.90;;;;;;5075320;28;20266;-65
2021/04/12 04:45:51;;;;;;;4.87;4.37;;;5.10;99.90;;;;;;5075180;28;20242;-64
2021/04/12 04:48:54;;;;;;;6.60;4.30;;;4.80;99.90;;;;;;5075042;28;20584;-64
2021/04/12 04:51:47;;;;;;;5.30;4.80;;;4.60;99.90;;;;;;5075005;28;20261;-64
2021/04/12 04:54:42;;;;;;;6.77;4.93;;;4.40;99.90;;;;;;5074896;28;20236;-64
2021/04/12 04:57:18;;;;;;;4.30;3.90;;;4.50;99.90;;;;;;5075060;28;20212;-64
2021/04/12 05:00:13;;;;;;;4.57;4.17;;;4.50;99.90;;;;;;5074864;28;20205;-64
2021/04/12 05:03:00;;;;;;;4.90;4.40;;;4.40;99.90;;;;;;5075156;28;20200;-64
2021/04/12 05:05:37;;;;;;;5.80;5.20;;;4.40;99.90;;;;;;5074360;28;20240;-65
2021/04/12 05:08:31;;;;;;;5.30;4.80;;;4.50;99.90;;;;;;5074374;28;20250;-65
2021/04/12 05:11:18;;;;;;;4.83;4.33;;;4.60;99.90;;;;;;5075056;28;20216;-64
2021/04/12 05:14:07;;;;;;;6.63;4.80;;;4.50;99.90;;;;;;5075305;28;20229;-63
2021/04/12 05:17:00;;;;;;;8.93;5.00;;;4.40;99.90;;;;;;5074907;28;20201;-63
2021/04/12 05:20:17;;;;;;;5.67;4.97;;;4.60;99.90;;;;;;5074871;28;20208;-64
2021/04/12 05:23:11;;;;;;;6.50;5.30;;;4.70;99.90;;;;;;5038597;28;20197;-63
2021/04/12 05:25:55;;;;;;;6.27;5.00;;;4.70;99.90;;;;;;5074935;28;20605;-64
2021/04/12 05:28:42;;;;;;;6.20;4.87;;;4.70;99.90;;;;;;5075028;28;20407;-63
2021/04/12 05:31:40;;;;;;;5.40;4.90;;;4.70;99.90;;;;;;5075066;28;20215;-63
2021/04/12 05:34:34;;;;;;;6.23;5.63;;;4.90;99.90;;;;;;5075092;28;20729;-64
2021/04/12 05:37:21;;;;;;;5.77;5.20;;;5.00;99.90;;;;;;5075002;28;20205;-63
2021/04/12 05:40:20;;;;;;;6.10;5.17;;;5.10;99.90;;;;;;5074971;28;20567;-64
2021/04/12 05:43:01;;;;;;;6.33;5.70;;;5.00;99.90;;;;;;5073731;28;20201;-66
2021/04/12 05:45:53;;;;;;;7.20;5.60;;;5.00;99.90;;;;;;5073512;28;20657;-62
2021/04/12 05:48:56;;;;;;;6.37;5.73;;;5.10;99.90;;;;;;5073777;28;20212;-63
2021/04/12 05:51:37;;;;;;;6.53;5.40;;;5.20;99.90;;;;;;5070447;28;20205;-64
2021/04/12 05:54:43;;;;;;;7.47;6.67;;;5.20;99.90;;;;;;5074566;28;20286;-65
2021/04/12 05:57:24;;;;;;;6.90;5.70;;;5.10;99.90;;;;;;5071609;28;20247;-63
2021/04/12 06:00:17;;;;;;;6.87;6.07;;;5.20;99.90;;;;;;5074413;28;20216;-65
2021/04/12 06:03:01;;;;;;;6.80;6.20;;;5.20;99.90;;;;;;5074083;28;20262;-65
2021/04/12 06:05:34;;;;;;;7.50;6.50;;;5.50;99.90;;;;;;5073739;28;20252;-64
2021/04/12 06:08:36;;;;;;;9.90;6.27;;;5.30;99.90;;;;;;5073611;28;20660;-64
2021/04/12 06:11:41;;;;;;;9.33;8.20;;;5.40;99.90;;;;;;5073532;28;20219;-65
2021/04/12 06:14:38;;;;;;;8.70;6.77;;;5.60;99.90;;;;;;5073077;28;20696;-64
2021/04/12 06:17:33;;;;;;;8.50;6.80;;;5.70;99.90;;;;;;5047086;28;20205;-64
2021/04/12 06:20:35;;;;;;;7.80;6.00;;;5.90;99.90;;;;;;5073758;28;20215;-65
2021/04/12 06:23:28;;;;;;;12.60;6.40;;;5.90;99.90;;;;;;5073676;28;20208;-65
2021/04/12 06:26:26;;;;;;;6.80;5.57;;;6.00;99.90;;;;;;5060497;28;20205;-64
2021/04/12 06:29:11;;;;;;;6.90;6.20;;;6.20;99.90;;;;;;5073326;28;20205;-64
2021/04/12 06:32:12;;;;;;;6.77;5.93;;;6.30;99.90;;;;;;5073928;28;20204;-64
2021/04/12 06:35:07;;;;;;;10.37;5.67;;;6.40;99.90;;;;;;5067964;28;20264;-64
2021/04/12 06:37:52;;;;;;;6.37;5.63;;;6.50;99.90;;;;;;5073688;28;20212;-67
2021/04/12 06:40:41;;;;;;;8.73;6.40;;;6.70;99.90;;;;;;5073430;28;20323;-65
2021/04/12 06:43:45;;;;;;;6.27;5.70;;;6.70;99.90;;;;;;5073457;28;20205;-65
2021/04/12 06:46:47;;;;;;;8.80;6.37;;;6.80;99.90;;;;;;5073550;28;20208;-65
2021/04/12 06:49:54;;;;;;;6.87;5.60;;;7.00;99.90;;;;;;5073478;28;20208;-67
2021/04/12 06:53:08;;;;;;;6.13;5.53;;;7.10;99.90;;;;;;5073588;28;20330;-65
2021/04/12 06:56:10;;;;;;;7.67;5.60;;;7.00;99.90;;;;;;5072836;28;20236;-64
2021/04/12 06:59:00;;;;;;;7.50;6.50;;;7.00;99.90;;;;;;5073023;28;20204;-63
2021/04/12 07:01:59;;;;;;;8.60;6.20;;;7.10;99.90;;;;;;5073080;28;20712;-64
2021/04/12 07:05:17;;;;;;;7.73;6.40;;;7.20;99.90;;;;;;5073331;28;20262;-66
2021/04/12 07:08:32;;;;;;;7.10;6.27;;;7.40;99.90;;;;;;5073805;28;20673;-65
2021/04/12 07:11:37;;;;;;;7.63;6.83;;;7.50;99.90;;;;;;5073801;28;20224;-65
2021/04/12 07:14:45;;;;;;;9.17;7.07;;;7.70;99.90;;;;;;5073872;28;20236;-64
2021/04/12 07:17:51;;;;;;;10.53;6.57;;;7.70;99.90;;;;;;5071831;28;20211;-64
2021/04/12 07:20:55;;;;;;;7.33;6.57;;;7.90;99.90;;;;;;5073198;28;20228;-65
2021/04/12 07:23:53;;;;;;;7.10;6.40;;;7.90;99.90;;;;;;5073054;28;20216;-65
2021/04/12 07:26:55;;;;;;;9.40;7.30;;;8.00;99.90;;;;;;5072693;28;20205;-65
2021/04/12 07:30:00;;;;;;;8.27;7.37;;;8.00;99.90;;;;;;5071988;28;20208;-65
2021/04/12 07:32:55;;;;;;;10.07;8.10;;;8.00;99.90;;;;;;5072672;28;20745;-65
2021/04/12 07:35:40;;;;;;;9.03;8.17;;;8.00;99.90;;;;;;5072446;28;20233;-64
2021/04/12 07:38:40;;;;;;;9.17;8.20;;;8.10;99.90;;;;;;5073168;28;20285;-65
2021/04/12 07:41:48;;;;;;;13.30;8.60;;;8.30;99.90;;;;;;5072606;28;20231;-66
2021/04/12 07:45:06;;;;;;;8.47;7.67;;;8.40;99.90;;;;;;5071838;28;20235;-64
2021/04/12 07:48:07;;;;;;;10.50;8.40;;;8.50;99.90;;;;;;5071621;28;20193;-64
2021/04/12 07:51:32;;;;;;;11.60;8.53;;;8.50;99.90;;;;;;5071217;28;20574;-64
2021/04/12 07:54:52;;;;;;;9.10;8.20;;;8.60;99.90;;;;;;5071158;28;20239;-66
2021/04/12 07:58:00;;;;;;;11.57;9.60;;;8.60;99.90;;;;;;5070972;28;20216;-65
2021/04/12 08:01:01;;;;;;;12.47;9.17;;;8.60;99.90;;;;;;5070905;28;20655;-65
2021/04/12 08:04:01;;;;;;;11.10;9.33;;;8.60;99.90;;;;;;5070636;28;20292;-65
2021/04/12 08:07:06;;;;;;;10.97;9.57;;;8.60;99.90;;;;;;5070766;28;20589;-65
2021/04/12 08:09:47;;;;;;;11.00;9.30;;;8.70;99.90;;;;;;5070045;28;20200;-65
2021/04/12 08:12:54;;;;;;;11.30;8.83;;;9.00;99.90;;;;;;5070840;28;20204;-65
2021/04/12 08:15:44;;;;;;;11.60;9.87;;;9.20;99.90;;;;;;5070616;28;20320;-66
2021/04/12 08:18:30;;;;;;;12.73;10.03;;;9.40;99.90;;;;;;5057495;28;20224;-65
2021/04/12 08:21:41;;;;;;;11.67;9.53;;;9.60;99.90;;;;;;5070974;28;20225;-66
2021/04/12 08:24:24;;;;;;;12.00;9.77;;;9.70;99.90;;;;;;5034447;28;20237;-65
2021/04/12 08:27:18;;;;;;;11.40;9.17;;;9.70;99.90;;;;;;5070938;28;20205;-65
2021/04/12 08:30:16;;;;;;;10.23;8.97;;;9.80;99.90;;;;;;5070885;28;20205;-65
2021/04/12 08:33:29;;;;;;;9.93;8.93;;;9.90;99.90;;;;;;5045267;28;20573;-65
2021/04/12 08:36:41;;;;;;;11.53;10.33;;;9.90;99.90;;;;;;5070814;28;20691;-66
2021/04/12 08:39:49;;;;;;;12.27;9.70;;;9.90;99.90;;;;;;5070602;28;20232;-66
2021/04/12 08:43:06;;;;;;;12.60;9.93;;;9.70;99.90;;;;;;5021210;28;20233;-65
2021/04/12 08:46:02;;;;;;;12.23;9.87;;;9.70;99.90;;;;;;5008617;28;20223;-66
2021/04/12 08:48:48;;;;;;;12.57;9.77;;;9.80;99.90;;;;;;5008628;28;20211;-66
2021/04/12 08:51:40;;;;;;;10.47;9.07;;;9.80;99.90;;;;;;5064662;28;20200;-66
2021/04/12 08:54:38;;;;;;;13.53;9.40;;;9.80;99.90;;;;;;5071369;28;20225;-66
2021/04/12 08:57:37;;;;;;;9.60;8.60;;;10.10;99.70;;;;;;5044889;28;20213;-66
2021/04/12 09:00:36;;;;;;;10.47;8.13;;;10.60;99.40;;;;;;5071074;28;20665;-64
2021/04/12 09:03:31;;;;;;;10.67;7.90;;;11.10;98.40;;;;;;5070759;28;20668;-66
2021/04/12 09:06:31;;;;;;;9.17;7.00;;;11.40;97.00;;;;;;5112999;22;20228;-65
2021/04/12 09:09:20;;;;;;;11.30;7.87;;;11.70;95.10;;;;;;5090369;28;20208;-66
2021/04/12 09:12:34;;;;;;;8.60;7.70;;;11.70;95.10;;;;;;5090198;28;20624;-65
2021/04/12 09:15:34;;;;;;;8.17;6.47;;;11.60;94.80;;;;;;5084302;28;20715;-64
2021/04/12 09:18:38;;;;;;;8.43;7.57;;;11.70;93.50;;;;;;5090244;28;20208;-65
2021/04/12 09:21:35;;;;;;;8.27;7.00;;;11.60;93.80;;;;;;5091846;28;20227;-65
2021/04/12 09:24:37;;;;;;;12.53;8.13;;;11.60;93.60;;;;;;5093742;28;20210;-65
2021/04/12 09:27:34;;;;;;;8.10;6.97;;;11.60;93.10;;;;;;5093940;28;20207;-65
2021/04/12 09:30:34;;;;;;;7.50;6.53;;;11.60;93.60;;;;;;5093933;28;20671;-63
2021/04/12 09:33:24;;;;;;;8.57;6.63;;;11.70;93.60;;;;;;5067029;28;20563;-61
2021/04/12 09:36:18;;;;;;;10.50;6.60;;;11.90;92.60;;;;;;5094084;28;20224;-64
2021/04/12 09:39:35;;;;;;;11.73;6.67;;;11.90;92.50;;;;;;5093782;28;20254;-57
2021/04/12 09:42:29;;;;;;;6.13;5.33;;;12.10;92.20;;;;;;5011372;28;20661;-66
2021/04/12 09:45:37;;;;;;;7.33;6.40;;;12.10;90.30;;;;;;5011211;28;20405;-66
2021/04/12 09:48:46;;;;;;;7.83;6.00;;;12.00;90.80;;;;;;5093408;28;20208;-63
2021/04/12 09:51:56;;;;;;;8.13;5.60;;;11.90;90.50;;;;;;5093650;28;20200;-64
2021/04/12 09:54:58;;;;;;;8.90;5.53;;;11.80;90.20;;;;;;5093498;28;20224;-65
2021/04/12 09:58:00;;;;;;;10.70;6.83;;;11.80;90.60;;;;;;5010950;28;20206;-63
2021/04/12 10:00:54;;;;;;;6.90;5.93;;;11.90;90.90;;;;;;5093314;28;20208;-63
2021/04/12 10:04:00;;;;;;;6.90;4.93;;;12.10;90.40;;;;;;5080553;28;20420;-63
2021/04/12 10:06:53;;;;;;;8.33;5.30;;;12.30;90.10;;;;;;5093195;28;20215;-65
2021/04/12 10:09:37;;;;;;;7.97;5.93;;;12.40;89.10;;;;;;5093047;28;20211;-62
2021/04/12 10:12:20;;;;;;;8.53;5.40;;;12.40;88.20;;;;;;5092972;28;20204;-64
2021/04/12 10:14:52;;;;;;;7.47;4.70;;;12.50;88.80;;;;;;5092603;28;20738;-63
2021/04/12 10:17:25;;;;;;;9.80;4.87;;;12.50;86.10;;;;;;5092977;28;20256;-63
2021/04/12 10:19:54;;;;;;;5.67;4.67;;;12.40;85.40;;;;;;5092706;28;20264;-63
2021/04/12 10:22:27;;;;;;;7.23;3.97;;;12.50;85.40;;;;;;5092791;28;20265;-63
2021/04/12 10:24:55;;;;;;;5.77;4.20;;;12.50;82.20;;;;;;5092275;28;20600;-63
2021/04/12 10:27:29;;;;;;;7.77;4.77;;;12.50;83.50;;;;;;5092847;28;20697;-64
2021/04/12 10:30:09;;;;;;;7.63;5.83;;;12.60;81.70;;;;;;5092362;28;20227;-63
2021/04/12 10:32:43;;;;;;;5.70;4.47;;;12.60;80.30;;;;;;5092229;28;20223;-63
2021/04/12 10:35:13;;;;;;;5.03;4.53;;;12.60;80.40;;;;;;5092586;28;20243;-64
2021/04/12 10:37:46;;;;;;;5.80;4.30;;;12.50;79.90;;;;;;5092733;28;20219;-63
2021/04/12 10:40:21;;;;;;;5.07;3.90;;;12.50;78.80;;;;;;5092950;28;20220;-63
2021/04/12 10:42:56;;;;;;;6.63;3.70;;;12.40;77.60;;;;;;5092359;28;20207;-62
2021/04/12 10:45:27;;;;;;;8.13;4.07;;;12.20;74.40;;;;;;5092211;28;20289;-63
2021/04/12 10:48:04;;;;;;;6.23;3.80;;;12.20;76.10;;;;;;5092116;28;20510;-63
2021/04/12 10:50:47;;;;;;;5.17;3.93;;;12.50;77.00;;;;;;5092118;28;20231;-63
2021/04/12 10:53:34;;;;;;;8.17;4.20;;;12.80;75.60;;;;;;5092416;28;20234;-62
2021/04/12 10:56:06;;;;;;;8.07;4.07;;;13.10;76.40;;;;;;5092423;28;20228;-62
2021/04/12 10:58:50;;;;;;;7.57;3.77;;;13.30;75.40;;;;;;5092304;28;20200;-62
2021/04/12 11:01:29;;;;;;;7.03;3.60;;;13.50;73.30;;;;;;5092316;28;20224;-63
2021/04/12 11:04:07;;;;;;;4.10;3.43;;;13.60;72.80;;;;;;5092325;28;20203;-63
2021/04/12 11:06:53;;;;;;;3.77;3.47;;;13.50;71.30;;;;;;5092108;28;20208;-63
2021/04/12 11:09:36;;;;;;;7.53;3.50;;;13.50;72.40;;;;;;5091618;28;20212;-63
2021/04/12 11:12:12;;;;;;;4.23;3.27;;;13.60;72.20;;;;;;5092211;28;20847;-66
2021/04/12 11:14:46;;;;;;;5.00;3.30;;;13.70;69.60;;;;;;5091613;28;20606;-61
2021/04/12 11:17:23;;;;;;;5.30;3.00;;;13.70;68.80;;;;;;5091838;28;20211;-61
2021/04/12 11:20:01;;;;;;;7.57;2.70;;;13.70;68.80;;;;;;5091488;28;20203;-64
2021/04/12 11:22:42;;;;;;;4.10;2.60;;;13.60;68.30;;;;;;5091683;28;20710;-63
2021/04/12 11:25:15;;;;;;;3.07;2.00;;;13.50;66.10;;;;;;5091597;28;20228;-64
2021/04/12 11:28:09;;;;;;;3.30;2.77;;;13.40;63.40;;;;;;5091990;28;20204;-64
2021/04/12 11:30:45;;;;;;;4.37;2.33;;;13.30;65.50;;;;;;5091905;28;20745;-64
2021/04/12 11:33:50;;;;;;;5.03;2.60;;;13.50;66.50;;;;;;5092547;28;20200;-63
2021/04/12 11:36:35;;;;;;;3.10;2.33;;;13.60;65.00;;;;;;5028846;28;20710;-63
2021/04/12 11:39:08;;;;;;;5.57;2.60;;;13.80;63.50;;;;;;5028538;28;20210;-62
2021/04/12 11:41:42;;;;;;;3.37;2.63;;;14.10;64.40;;;;;;5065934;28;20281;-62
2021/04/12 11:44:13;;;;;;;4.27;2.40;;;14.30;63.60;;;;;;5090124;28;20239;-62
2021/04/12 11:47:03;;;;;;;4.40;2.33;;;14.60;62.50;;;;;;5091911;28;20212;-61
2021/04/12 11:49:39;;;;;;;3.50;2.03;;;14.70;57.80;;;;;;5092096;28;20215;-61
2021/04/12 11:52:09;;;;;;;2.67;1.87;;;14.70;57.40;;;;;;5092562;28;20196;-63
2021/04/12 11:54:42;;;;;;;4.90;2.40;;;14.60;56.40;;;;;;5092509;28;20224;-64
2021/04/12 11:57:34;;;;;;;2.07;1.43;;;14.30;58.20;;;;;;5092619;28;20204;-64
2021/04/12 12:00:07;;;;;;;2.00;1.60;;;14.40;55.70;;;;;;5077800;28;20204;-64
2021/04/12 12:03:05;;;;;;;2.40;1.50;;;14.20;56.20;;;;;;5091453;28;20699;-64
2021/04/12 12:05:36;;;;;;;3.20;1.70;;;14.10;55.00;;;;;;5090812;28;20239;-63
2021/04/12 12:08:08;;;;;;;3.13;1.73;;;13.80;55.30;;;;;;5091025;28;20204;-63
2021/04/12 12:10:48;;;;;;;4.13;1.90;;;13.80;55.60;;;;;;5091262;28;20215;-63
2021/04/12 12:13:34;;;;;;;4.20;1.93;;;13.70;56.20;;;;;;5091021;28;20243;-63
2021/04/12 12:16:12;;;;;;;3.57;1.90;;;13.80;56.50;;;;;;5090853;28;20235;-62
2021/04/12 12:18:45;;;;;;;4.43;2.03;;;13.90;57.80;;;;;;5091001;28;20710;-63
2021/04/12 12:21:16;;;;;;;3.27;2.27;;;14.30;57.60;;;;;;5090934;28;20232;-62
2021/04/12 12:23:52;;;;;;;3.83;2.03;;;14.80;57.80;;;;;;5090964;28;20204;-64
2021/04/12 12:26:29;;;;;;;3.60;2.00;;;15.30;56.10;;;;;;5091464;28;20218;-64
2021/04/12 12:29:20;;;;;;;3.27;1.90;;;15.60;56.50;;;;;;5091096;28;20203;-64
2021/04/12 12:32:27;;;;;;;3.57;2.00;;;15.80;54.90;;;;;;5091099;28;20208;-64
2021/04/12 12:35:07;;;;;;;3.40;2.23;;;15.60;55.00;;;;;;5090617;28;20224;-64
2021/04/12 12:37:52;;;;;;;3.80;2.27;;;15.20;56.40;;;;;;5090849;28;20204;-64
2021/04/12 12:40:21;;;;;;;3.13;2.10;;;15.00;56.40;;;;;;5090764;28;20204;-62
2021/04/12 12:42:51;;;;;;;5.37;2.40;;;14.40;55.70;;;;;;5091001;28;20708;-64
2021/04/12 12:45:25;;;;;;;5.03;2.97;;;14.00;56.40;;;;;;5091107;28;20232;-63
2021/04/12 12:47:57;;;;;;;6.20;2.40;;;13.80;57.90;;;;;;5090822;28;20215;-64
2021/04/12 12:50:27;;;;;;;3.70;2.47;;;13.90;57.80;;;;;;5090591;28;20208;-63
2021/04/12 12:52:57;;;;;;;4.33;2.40;;;14.00;58.00;;;;;;5090534;28;20211;-64
2021/04/12 12:55:27;;;;;;;5.63;2.13;;;14.10;58.20;;;;;;5090819;28;20289;-64
2021/04/12 12:57:56;;;;;;;3.03;2.20;;;14.30;58.10;;;;;;5094491;28;20208;-63
2021/04/12 13:00:35;;;;;;;2.80;2.03;;;14.60;56.30;;;;;;5094492;28;20223;-63
2021/04/12 13:03:18;;;;;;;3.83;2.40;;;14.70;56.70;;;;;;5094340;28;20200;-64
2021/04/12 13:05:46;;;;;;;4.13;2.17;;;14.80;56.30;;;;;;5093944;28;20232;-63
2021/04/12 13:08:16;;;;;;;3.47;2.20;;;15.00;54.90;;;;;;5093979;28;20620;-63
2021/04/12 13:10:44;;;;;;;4.53;3.00;;;14.90;55.00;;;;;;5094145;28;20207;-64
2021/04/12 13:13:20;;;;;;;2.70;1.90;;;14.90;56.20;;;;;;5094338;28;20220;-63
2021/04/12 13:15:47;;;;;;;2.63;2.17;;;14.70;52.90;;;;;;5093790;28;20715;-63
2021/04/12 13:18:24;;;;;;;3.20;2.17;;;14.70;53.80;;;;;;5093854;28;20211;-64
2021/04/12 13:20:56;;;;;;;3.70;1.90;;;14.80;53.10;;;;;;5093971;28;20207;-63
2021/04/12 13:23:27;;;;;;;3.67;2.40;;;15.00;53.40;;;;;;5094040;28;20204;-64
2021/04/12 13:25:54;;;;;;;4.50;2.40;;;15.10;54.30;;;;;;5093890;28;20585;-63
2021/04/12 13:28:26;;;;;;;2.90;2.50;;;15.20;54.40;;;;;;5093545;28;20212;-63
2021/04/12 13:31:01;;;;;;;3.10;2.13;;;15.20;55.10;;;;;;5093609;28;20210;-63
2021/04/12 13:33:32;;;;;;;4.43;2.40;;;15.00;54.60;;;;;;5093719;28;20204;-64
2021/04/12 13:36:05;;;;;;;4.27;2.03;;;14.60;53.50;;;;;;5093696;28;20514;-64
2021/04/12 13:38:36;;;;;;;4.00;2.00;;;14.30;54.10;;;;;;5093678;28;20287;-63
2021/04/12 13:41:09;;;;;;;6.10;2.30;;;14.20;54.70;;;;;;5093656;28;20220;-63
2021/04/12 13:43:38;;;;;;;3.33;2.27;;;14.10;54.80;;;;;;5093372;28;20230;-63
2021/04/12 13:46:13;;;;;;;4.17;2.30;;;14.00;54.80;;;;;;5093787;28;20255;-63
2021/04/12 13:48:47;;;;;;;5.67;2.50;;;14.20;55.10;;;;;;5093760;28;20245;-63
2021/04/12 13:51:23;;;;;;;4.13;2.10;;;14.40;53.90;;;;;;5093648;28;20254;-62
2021/04/12 13:53:54;;;;;;;2.23;1.80;;;14.40;53.70;;;;;;5093228;28;20208;-62
2021/04/12 13:56:24;;;;;;;7.30;4.50;;;14.60;53.40;;;;;;5093629;28;20678;-62
2021/04/12 13:59:02;;;;;;;3.57;2.07;;;14.70;52.60;;;;;;5095225;28;20219;-62
2021/04/12 14:01:39;;;;;;;2.83;2.10;;;14.80;51.20;;;;;;5100735;28;20269;-63
2021/04/12 14:04:12;;;;;;;4.03;2.07;;;14.60;51.90;;;;;;5107826;28;20211;-63
2021/04/12 14:06:50;;;;;;;2.37;1.70;;;14.30;52.50;;;;;;5110578;28;20219;-62
2021/04/12 14:09:27;;;;;;;3.27;1.67;;;14.00;52.20;;;;;;5111643;28;20208;-62
2021/04/12 14:11:57;;;;;;;4.60;2.20;;;13.70;53.20;;;;;;5104782;28;20330;-62
2021/04/12 14:14:28;;;;;;;2.63;1.90;;;13.50;53.40;;;;;;5101099;28;20266;-61
2021/04/12 14:17:04;;;;;;;3.97;2.00;;;13.00;53.70;;;;;;5100924;28;20222;-62
2021/04/12 14:19:38;;;;;;;4.07;2.23;;;12.50;55.90;;;;;;5105357;28;20200;-63
2021/04/12 14:22:14;;;;;;;3.20;1.90;;;12.30;56.40;;;;;;5105336;28;20243;-62
2021/04/12 14:24:48;;;;;;;3.30;1.80;;;12.10;56.30;;;;;;5105105;28;20223;-62
2021/04/12 14:27:23;;;;;;;4.03;2.03;;;11.70;55.80;;;;;;5104450;28;20245;-62
2021/04/12 14:29:59;;;;;;;3.33;2.00;;;11.60;56.20;;;;;;5100998;28;20223;-63
2021/04/12 14:32:30;;;;;;;3.27;2.00;;;11.50;57.60;;;;;;5102871;28;20200;-64
2021/04/12 14:35:02;;;;;;;4.60;2.70;;;11.80;58.00;;;;;;5092547;28;20227;-63